createdAt,value
2022-12-27T00:00:36.067Z,101929.41
2022-12-27T00:03:06.486Z,101956.06
2022-12-27T00:05:38.260Z,101938.00
2022-12-27T00:08:08.216Z,101935.38
2022-12-27T00:10:38.735Z,101928.53
2022-12-27T00:13:09.383Z,101934.53
2022-12-27T00:15:39.287Z,101925.84
2022-12-27T00:18:10.121Z,101929.38
2022-12-27T00:20:41.915Z,101919.91
2022-12-27T00:23:12.648Z,101911.31
2022-12-27T00:25:42.548Z,101932.84
2022-12-27T00:28:12.803Z,101924.19
2022-12-27T00:30:42.664Z,101777.81
2022-12-27T00:33:12.919Z,101934.47
2022-12-27T00:35:44.555Z,101929.19
2022-12-27T00:38:14.558Z,101933.41
2022-12-27T00:40:44.992Z,101937.81
2022-12-27T00:43:15.663Z,101944.78
2022-12-27T00:45:46.388Z,101939.56
2022-12-27T00:48:16.285Z,101967.16
2022-12-27T00:50:48.651Z,101945.66
2022-12-27T00:53:20.513Z,101966.16
2022-12-27T00:55:51.083Z,101938.72
2022-12-27T00:58:20.953Z,101940.34
2022-12-27T01:00:51.582Z,101942.16
2022-12-27T01:03:22.245Z,101953.44
2022-12-27T01:05:53.538Z,101966.31
2022-12-27T01:08:23.492Z,101952.66
2022-12-27T01:10:54.120Z,101962.84
2022-12-27T01:13:24.968Z,101966.34
2022-12-27T01:15:55.328Z,101980.13
2022-12-27T01:18:28.462Z,101961.78
2022-12-27T01:20:59.804Z,101973.56
2022-12-27T01:23:33.240Z,101979.66
2022-12-27T01:26:04.570Z,101978.84
2022-12-27T01:28:34.998Z,101978.13
2022-12-27T01:31:07.581Z,101989.47
2022-12-27T01:33:40.512Z,101997.63
2022-12-27T01:36:17.640Z,101982.25
2022-12-27T01:38:49.721Z,101984.97
2022-12-27T01:41:38.941Z,101987.41
2022-12-27T01:44:49.851Z,101999.44
2022-12-27T01:47:28.355Z,101987.47
2022-12-27T01:50:11.085Z,101871.94
2022-12-27T01:52:47.648Z,101992.53
2022-12-27T01:55:24.638Z,101990.81
2022-12-27T01:57:59.479Z,101998.63
2022-12-27T02:00:29.965Z,101969.50
2022-12-27T02:03:05.858Z,102008.25
2022-12-27T02:05:42.023Z,102022.13
2022-12-27T02:08:43.532Z,102021.19
2022-12-27T02:11:14.921Z,102027.16
2022-12-27T02:13:48.076Z,102015.09
2022-12-27T02:16:19.307Z,102029.75
2022-12-27T02:18:49.937Z,102026.25
2022-12-27T02:21:54.025Z,102028.13
2022-12-27T02:24:54.729Z,102034.19
2022-12-27T02:27:52.254Z,102036.81
2022-12-27T02:30:23.857Z,102038.56
2022-12-27T02:33:00.319Z,102044.59
2022-12-27T02:35:35.437Z,102051.44
2022-12-27T02:38:09.703Z,102050.59
2022-12-27T02:41:00.587Z,101952.09
2022-12-27T02:43:48.930Z,102054.03
2022-12-27T02:46:41.853Z,102057.09
2022-12-27T02:49:43.721Z,102051.75
2022-12-27T02:52:41.491Z,102057.78
2022-12-27T02:56:11.239Z,102060.34
2022-12-27T02:58:58.550Z,102062.91
2022-12-27T03:02:00.424Z,102064.72
2022-12-27T03:04:48.039Z,102033.88
2022-12-27T03:07:34.504Z,102062.88
2022-12-27T03:10:39.704Z,102021.75
2022-12-27T03:13:38.183Z,101960.19
2022-12-27T03:16:20.647Z,102059.56
2022-12-27T03:19:09.216Z,102053.53
2022-12-27T03:22:03.093Z,102064.72
2022-12-27T03:24:52.571Z,102061.97
2022-12-27T03:27:28.835Z,102073.25
2022-12-27T03:30:18.002Z,102065.38
2022-12-27T03:33:09.731Z,102076.81
2022-12-27T03:36:06.017Z,102081.91
2022-12-27T03:38:43.691Z,102069.25
2022-12-27T03:41:36.614Z,102082.03
2022-12-27T03:44:24.708Z,102080.38
2022-12-27T03:46:56.923Z,102088.97
2022-12-27T03:49:35.168Z,102070.13
2022-12-27T03:52:13.437Z,102091.50
2022-12-27T03:54:47.060Z,102091.63
2022-12-27T03:57:19.622Z,102051.38
2022-12-27T03:59:49.496Z,102087.34
2022-12-27T04:02:22.120Z,102074.53
2022-12-27T04:04:52.294Z,102090.03
2022-12-27T04:07:23.610Z,102095.03
2022-12-27T04:10:13.661Z,102089.97
2022-12-27T04:13:00.558Z,102104.69
2022-12-27T04:15:48.080Z,102089.34
2022-12-27T04:18:35.005Z,102108.34
2022-12-27T04:21:22.431Z,102097.84
2022-12-27T04:24:12.039Z,102103.16
2022-12-27T04:26:59.582Z,102103.09
2022-12-27T04:29:46.465Z,102104.78
2022-12-27T04:32:33.205Z,102103.81
2022-12-27T04:35:06.635Z,102107.44
2022-12-27T04:37:36.076Z,102108.38
2022-12-27T04:40:26.420Z,102119.56
2022-12-27T04:43:13.892Z,102119.47
2022-12-27T04:46:02.246Z,102113.47
2022-12-27T04:48:49.689Z,102111.84
2022-12-27T04:51:36.539Z,102113.53
2022-12-27T04:54:34.358Z,102110.16
2022-12-27T04:57:06.904Z,102146.31
2022-12-27T04:59:55.275Z,102132.44
2022-12-27T05:02:25.499Z,102130.78
2022-12-27T05:04:55.212Z,102128.19
2022-12-27T05:07:41.682Z,102132.47
2022-12-27T05:10:31.216Z,102131.72
2022-12-27T05:13:20.798Z,102136.06
2022-12-27T05:15:51.187Z,102130.91
2022-12-27T05:18:20.940Z,102006.50
2022-12-27T05:20:50.999Z,102140.38
2022-12-27T05:23:37.795Z,102131.78
2022-12-27T05:26:06.993Z,102136.06
2022-12-27T05:28:37.328Z,102135.16
2022-12-27T05:31:06.405Z,102144.59
2022-12-27T05:33:35.794Z,102135.13
2022-12-27T05:36:04.543Z,102136.81
2022-12-27T05:38:33.630Z,102144.50
2022-12-27T05:41:03.980Z,102154.03
2022-12-27T05:43:33.735Z,102152.22
2022-12-27T05:46:08.560Z,102147.94
2022-12-27T05:48:37.818Z,102148.84
2022-12-27T05:51:08.296Z,102132.56
2022-12-27T05:53:37.468Z,102154.84
2022-12-27T05:56:07.281Z,102160.00
2022-12-27T05:58:36.499Z,102157.47
2022-12-27T06:01:11.906Z,102161.75
2022-12-27T06:03:41.171Z,102159.19
2022-12-27T06:06:14.063Z,102155.78
2022-12-27T06:08:52.981Z,102152.25
2022-12-27T06:11:22.414Z,102172.91
2022-12-27T06:13:54.961Z,102063.03
2022-12-27T06:16:25.634Z,102173.78
2022-12-27T06:18:54.618Z,102170.41
2022-12-27T06:21:24.189Z,102185.00
2022-12-27T06:23:53.304Z,102183.34
2022-12-27T06:26:24.414Z,102152.44
2022-12-27T06:28:54.345Z,102186.81
2022-12-27T06:31:27.511Z,102188.53
2022-12-27T06:33:58.772Z,102185.94
2022-12-27T06:36:30.259Z,102194.53
2022-12-27T06:38:59.674Z,102186.75
2022-12-27T06:41:29.166Z,102187.69
2022-12-27T06:43:59.571Z,102198.00
2022-12-27T06:46:30.658Z,102204.00
2022-12-27T06:48:59.809Z,102195.41
2022-12-27T06:51:29.556Z,102208.31
2022-12-27T06:53:58.843Z,102076.91
2022-12-27T06:56:28.126Z,102197.13
2022-12-27T06:58:59.852Z,102212.63
2022-12-27T07:01:31.033Z,102179.94
2022-12-27T07:04:01.694Z,102216.03
2022-12-27T07:06:33.207Z,102211.72
2022-12-27T07:09:03.761Z,102220.34
2022-12-27T07:11:34.588Z,102216.91
2022-12-27T07:14:04.590Z,102195.41
2022-12-27T07:16:35.424Z,102223.78
2022-12-27T07:19:04.810Z,102228.94
2022-12-27T07:21:34.614Z,102229.78
2022-12-27T07:24:04.622Z,102228.94
2022-12-27T07:26:33.840Z,102234.94
2022-12-27T07:29:03.970Z,102225.50
2022-12-27T07:31:35.188Z,102222.06
2022-12-27T07:34:11.084Z,102229.81
2022-12-27T07:36:41.370Z,102234.94
2022-12-27T07:39:11.445Z,102231.50
2022-12-27T07:41:41.539Z,102234.06
2022-12-27T07:44:12.975Z,102073.38
2022-12-27T07:46:43.295Z,102234.06
2022-12-27T07:49:17.616Z,102083.72
2022-12-27T07:51:47.320Z,102241.81
2022-12-27T07:54:16.785Z,102244.41
2022-12-27T07:56:46.056Z,102243.53
2022-12-27T07:59:15.456Z,102247.81
2022-12-27T08:02:03.628Z,102252.13
2022-12-27T08:04:34.503Z,102228.03
2022-12-27T08:07:07.205Z,102253.84
2022-12-27T08:09:40.952Z,102264.13
2022-12-27T08:12:11.036Z,101991.69
2022-12-27T08:14:40.645Z,102253.84
2022-12-27T08:17:20.424Z,102265.00
2022-12-27T08:19:52.566Z,102265.00
2022-12-27T08:22:22.029Z,102271.03
2022-12-27T08:24:51.654Z,102295.09
2022-12-27T08:27:24.570Z,102275.34
2022-12-27T08:29:53.518Z,102264.16
2022-12-27T08:32:24.218Z,102244.38
2022-12-27T08:34:54.303Z,102105.19
2022-12-27T08:37:23.526Z,102266.75
2022-12-27T08:39:54.523Z,102247.81
2022-12-27T08:42:26.794Z,102266.75
2022-12-27T08:44:56.289Z,102259.88
2022-12-27T08:47:29.837Z,102268.47
2022-12-27T08:49:59.029Z,102268.47
2022-12-27T08:52:27.758Z,102267.63
2022-12-27T08:54:58.837Z,102274.50
2022-12-27T08:57:28.984Z,102273.63
2022-12-27T08:59:58.106Z,102276.22
2022-12-27T09:02:32.807Z,102265.88
2022-12-27T09:05:03.508Z,102266.75
2022-12-27T09:07:33.633Z,102269.31
2022-12-27T09:10:04.521Z,102271.06
2022-12-27T09:12:34.784Z,102273.63
2022-12-27T09:15:03.670Z,102271.91
2022-12-27T09:17:36.901Z,102192.84
2022-12-27T09:20:07.870Z,102277.06
2022-12-27T09:22:37.039Z,102236.66
2022-12-27T09:25:07.819Z,102283.06
2022-12-27T09:27:37.572Z,102284.81
2022-12-27T09:30:09.865Z,102292.56
2022-12-27T09:32:40.455Z,102256.44
2022-12-27T09:35:11.193Z,102277.94
2022-12-27T09:37:43.502Z,102283.06
2022-12-27T09:44:18.379Z,102286.53
2022-12-27T09:46:53.549Z,102289.94
2022-12-27T09:49:31.159Z,102292.53
2022-12-27T09:52:04.638Z,102290.81
2022-12-27T09:54:39.378Z,102258.16
2022-12-27T09:57:20.302Z,102288.22
2022-12-27T09:59:54.027Z,102288.19
2022-12-27T10:02:28.411Z,102292.50
2022-12-27T10:08:02.014Z,102304.56
2022-12-27T10:10:42.503Z,102308.84
2022-12-27T10:13:25.592Z,102301.91
2022-12-27T10:16:06.565Z,102300.22
2022-12-27T10:18:50.012Z,102303.69
2022-12-27T10:21:24.143Z,102304.53
2022-12-27T10:23:57.009Z,102306.25
2022-12-27T10:26:27.417Z,102301.09
2022-12-27T10:29:02.034Z,102278.75
2022-12-27T10:31:33.200Z,102308.84
2022-12-27T10:34:06.245Z,102300.19
2022-12-27T10:36:43.301Z,102287.19
2022-12-27T10:39:18.661Z,102287.09
2022-12-27T10:41:58.477Z,102290.53
2022-12-27T10:44:29.888Z,102290.53
2022-12-27T10:47:01.104Z,102291.34
2022-12-27T10:49:31.906Z,102294.78
2022-12-27T10:52:10.323Z,102292.22
2022-12-27T10:54:53.067Z,102289.72
2022-12-27T10:57:27.952Z,102282.69
2022-12-27T11:00:17.649Z,102283.50
2022-12-27T11:02:54.733Z,102285.03
2022-12-27T11:05:26.983Z,102288.56
2022-12-27T11:07:58.168Z,102300.69
2022-12-27T11:10:29.471Z,102295.38
2022-12-27T11:13:01.897Z,102298.09
2022-12-27T11:15:34.853Z,102297.22
2022-12-27T11:18:11.051Z,102274.94
2022-12-27T11:20:46.111Z,102264.66
2022-12-27T11:23:18.468Z,102293.56
2022-12-27T11:25:54.356Z,102284.09
2022-12-27T11:28:30.420Z,102285.72
2022-12-27T11:31:02.521Z,102270.84
2022-12-27T11:33:37.702Z,102270.69
2022-12-27T11:36:08.889Z,102264.34
2022-12-27T11:38:43.608Z,102278.28
2022-12-27T11:41:27.571Z,102272.00
2022-12-27T11:44:03.654Z,102270.38
2022-12-27T11:46:42.527Z,102259.13
2022-12-27T11:49:21.137Z,102262.66
2022-12-27T11:52:25.988Z,102269.72
2022-12-27T11:55:28.166Z,102269.72
2022-12-27T11:58:18.637Z,102263.81
2022-12-27T12:01:03.663Z,102271.66
2022-12-27T12:04:04.837Z,102266.53
2022-12-27T12:06:48.824Z,102222.78
2022-12-27T12:09:44.539Z,102238.97
2022-12-27T12:12:46.608Z,102243.19
2022-12-27T12:15:52.294Z,102231.97
2022-12-27T12:18:39.892Z,102230.19
2022-12-27T12:21:35.907Z,102227.56
2022-12-27T12:24:58.122Z,102218.97
2022-12-27T12:27:52.913Z,102204.16
2022-12-27T12:30:40.735Z,102203.34
2022-12-27T12:33:43.282Z,102201.69
2022-12-27T12:36:37.861Z,102181.78
2022-12-27T12:39:19.838Z,102206.81
2022-12-27T12:42:11.579Z,102186.84
2022-12-27T12:45:21.721Z,102173.09
2022-12-27T12:48:09.851Z,102171.34
2022-12-27T12:51:04.335Z,102164.38
2022-12-27T12:54:03.547Z,102152.19
2022-12-27T12:57:03.177Z,102144.50
2022-12-27T12:59:49.246Z,102134.97
2022-12-27T13:02:50.127Z,102139.09
2022-12-27T13:05:26.333Z,102128.78
2022-12-27T13:08:08.448Z,102134.09
2022-12-27T13:10:51.210Z,102096.31
2022-12-27T13:13:27.467Z,102130.47
2022-12-27T13:16:23.427Z,102128.69
2022-12-27T13:19:06.917Z,102129.66
2022-12-27T13:21:52.663Z,102132.59
2022-12-27T13:24:32.498Z,102126.44
2022-12-27T13:27:10.955Z,102128.25
2022-12-27T13:29:54.235Z,102074.94
2022-12-27T13:32:36.892Z,102113.78
2022-12-27T13:35:31.231Z,102098.13
2022-12-27T13:38:14.798Z,102101.53
2022-12-27T13:41:30.789Z,102098.16
2022-12-27T13:44:23.909Z,102078.53
2022-12-27T13:47:19.446Z,102057.97
2022-12-27T13:50:12.514Z,102072.38
2022-12-27T13:52:59.532Z,102068.97
2022-12-27T13:55:50.425Z,102060.50
2022-12-27T13:59:13.175Z,102058.75
2022-12-27T14:02:04.243Z,102053.53
2022-12-27T14:05:07.110Z,101909.72
2022-12-27T14:07:53.508Z,102045.84
2022-12-27T14:10:37.459Z,102044.16
2022-12-27T14:13:10.115Z,102047.75
2022-12-27T14:16:05.821Z,101931.28
2022-12-27T14:18:49.508Z,102042.47
2022-12-27T14:21:39.676Z,102041.63
2022-12-27T14:24:28.044Z,102047.47
2022-12-27T14:27:35.199Z,102046.75
2022-12-27T14:30:49.239Z,102043.34
2022-12-27T14:34:00.188Z,102042.25
2022-12-27T14:37:15.896Z,102028.63
2022-12-27T14:40:34.388Z,102029.50
2022-12-27T14:43:43.073Z,102033.78
2022-12-27T14:46:44.909Z,102027.00
2022-12-27T14:49:46.288Z,102031.22
2022-12-27T14:52:51.846Z,102033.84
2022-12-27T14:55:49.302Z,102035.53
2022-12-27T14:58:43.817Z,101892.78
2022-12-27T15:01:22.265Z,102032.03
2022-12-27T15:04:26.309Z,102038.91
2022-12-27T15:07:18.975Z,102036.22
2022-12-27T15:10:02.654Z,102034.53
2022-12-27T15:12:41.150Z,102032.16
2022-12-27T15:15:51.015Z,102035.44
2022-12-27T15:18:39.497Z,102034.84
2022-12-27T15:21:26.067Z,102034.88
2022-12-27T15:24:04.338Z,102040.88
2022-12-27T15:26:41.585Z,102037.47
2022-12-27T15:29:23.990Z,102033.25
2022-12-27T15:32:02.419Z,102035.84
2022-12-27T15:34:59.836Z,102035.09
2022-12-27T15:38:10.684Z,102038.41
2022-12-27T15:40:50.609Z,102023.97
2022-12-27T15:43:40.456Z,102038.47
2022-12-27T15:46:23.990Z,102035.88
2022-12-27T15:49:14.561Z,102027.28
2022-12-27T15:51:51.878Z,102016.88
2022-12-27T15:54:42.393Z,102030.66
2022-12-27T15:57:56.853Z,102025.44
2022-12-27T16:00:33.543Z,102030.75
2022-12-27T16:03:04.720Z,102019.31
2022-12-27T16:05:53.166Z,102016.03
2022-12-27T16:08:32.923Z,102013.38
2022-12-27T16:11:04.354Z,101980.84
2022-12-27T16:13:49.517Z,102004.75
2022-12-27T16:16:55.781Z,102001.16
2022-12-27T16:19:40.908Z,102002.91
2022-12-27T16:22:26.205Z,101993.44
2022-12-27T16:24:55.979Z,102006.22
2022-12-27T16:27:32.122Z,102010.66
2022-12-27T16:30:02.781Z,102011.47
2022-12-27T16:32:33.028Z,101992.50
2022-12-27T16:35:14.917Z,101982.25
2022-12-27T16:37:51.484Z,101980.59
2022-12-27T16:40:38.071Z,101983.19
2022-12-27T16:43:51.612Z,101965.22
2022-12-27T16:46:49.286Z,101961.69
2022-12-27T16:50:00.715Z,101965.13
2022-12-27T16:52:48.944Z,101963.44
2022-12-27T16:56:02.557Z,101954.06
2022-12-27T16:58:37.222Z,101943.03
2022-12-27T17:01:46.417Z,101950.75
2022-12-27T17:04:50.872Z,101943.84
2022-12-27T17:07:49.913Z,101940.31
2022-12-27T17:10:52.809Z,101938.75
2022-12-27T17:13:35.030Z,101936.09
2022-12-27T17:16:09.070Z,101925.69
2022-12-27T17:18:45.026Z,101940.06
2022-12-27T17:21:24.619Z,101942.03
2022-12-27T17:24:00.558Z,101925.78
2022-12-27T17:26:56.324Z,101927.38
2022-12-27T17:29:52.824Z,101923.13
2022-12-27T17:32:35.419Z,101920.34
2022-12-27T17:35:13.352Z,101894.84
2022-12-27T17:37:49.506Z,101914.31
2022-12-27T17:40:33.803Z,101887.06
2022-12-27T17:43:29.949Z,101891.16
2022-12-27T17:46:16.401Z,101887.81
2022-12-27T17:48:48.177Z,101880.06
2022-12-27T17:51:22.062Z,101884.31
2022-12-27T17:54:10.866Z,101863.09
2022-12-27T17:57:04.838Z,101883.38
2022-12-27T17:59:35.413Z,101878.34
2022-12-27T18:02:16.688Z,101885.19
2022-12-27T18:04:50.241Z,101851.72
2022-12-27T18:07:25.745Z,101879.09
2022-12-27T18:09:58.748Z,101851.81
2022-12-27T18:12:31.805Z,101870.50
2022-12-27T18:15:04.159Z,101877.50
2022-12-27T18:17:37.564Z,101861.97
2022-12-27T18:20:22.089Z,101856.75
2022-12-27T18:22:51.226Z,101850.50
2022-12-27T18:25:25.363Z,101843.75
2022-12-27T18:28:02.655Z,101844.47
2022-12-27T18:30:38.232Z,101841.22
2022-12-27T18:33:08.587Z,101831.34
2022-12-27T18:35:37.981Z,101801.59
2022-12-27T18:38:10.097Z,101829.97
2022-12-27T18:40:38.984Z,101838.38
2022-12-27T18:43:15.703Z,101830.97
2022-12-27T18:45:46.619Z,101837.06
2022-12-27T18:48:19.521Z,101797.66
2022-12-27T18:50:53.404Z,101823.41
2022-12-27T18:53:25.067Z,101778.81
2022-12-27T18:55:59.427Z,101815.38
2022-12-27T18:58:30.180Z,101797.41
2022-12-27T19:01:02.792Z,101798.13
2022-12-27T19:03:38.268Z,101805.13
2022-12-27T19:06:13.479Z,101811.09
2022-12-27T19:08:48.015Z,101799.25
2022-12-27T19:11:22.480Z,101766.94
2022-12-27T19:13:56.497Z,101799.19
2022-12-27T19:16:29.304Z,101790.63
2022-12-27T19:19:08.678Z,101773.09
2022-12-27T19:21:40.616Z,101775.06
2022-12-27T19:24:37.730Z,101767.41
2022-12-27T19:27:24.953Z,101735.78
2022-12-27T19:29:58.729Z,101747.66
2022-12-27T19:32:33.345Z,101749.44
2022-12-27T19:35:05.491Z,101743.44
2022-12-27T19:37:35.833Z,101717.91
2022-12-27T19:40:08.709Z,101746.22
2022-12-27T19:42:38.000Z,101737.47
2022-12-27T19:45:08.856Z,101738.41
2022-12-27T19:47:40.157Z,101727.19
2022-12-27T19:50:11.316Z,101734.81
2022-12-27T19:52:41.317Z,101727.97
2022-12-27T19:55:17.475Z,101718.41
2022-12-27T19:57:48.648Z,101720.19
2022-12-27T20:00:20.584Z,101708.94
2022-12-27T20:02:51.224Z,101703.59
2022-12-27T20:06:12.527Z,101696.69
2022-12-27T20:08:25.450Z,101689.88
2022-12-27T20:10:58.291Z,101640.66
2022-12-27T20:13:28.091Z,101688.34
2022-12-27T20:16:00.982Z,101678.66
2022-12-27T20:18:31.151Z,101494.25
2022-12-27T20:21:00.895Z,101692.63
2022-12-27T20:23:30.430Z,101672.00
2022-12-27T20:25:59.980Z,101657.13
2022-12-27T20:28:29.459Z,101683.78
2022-12-27T20:31:07.780Z,101663.09
2022-12-27T20:33:37.214Z,101666.50
2022-12-27T20:36:08.750Z,101661.59
2022-12-27T20:38:39.938Z,101606.03
2022-12-27T20:41:11.102Z,101657.34
2022-12-27T20:43:41.048Z,101651.44
2022-12-27T20:46:14.961Z,101648.84
2022-12-27T20:48:45.773Z,101649.53
2022-12-27T20:51:20.266Z,101651.31
2022-12-27T20:53:55.323Z,101645.81
2022-12-27T20:56:26.080Z,101632.22
2022-12-27T20:58:56.232Z,101639.59
2022-12-27T21:01:28.621Z,101623.97
2022-12-27T21:03:59.039Z,101623.38
2022-12-27T21:06:31.368Z,101608.31
2022-12-27T21:09:01.416Z,101616.63
2022-12-27T21:11:33.185Z,101606.22
2022-12-27T21:14:05.000Z,101604.69
2022-12-27T21:16:39.093Z,101608.13
2022-12-27T21:19:09.356Z,101596.81
2022-12-27T21:21:40.887Z,101601.13
2022-12-27T21:24:10.834Z,101547.44
2022-12-27T21:26:41.898Z,101595.09
2022-12-27T21:29:14.439Z,101580.00
2022-12-27T21:31:45.114Z,101572.69
2022-12-27T21:34:16.856Z,101586.47
2022-12-27T21:36:46.648Z,101554.59
2022-12-27T21:39:17.196Z,101576.75
2022-12-27T21:41:52.388Z,101567.19
2022-12-27T21:44:25.393Z,101561.28
2022-12-27T21:46:56.141Z,101555.34
2022-12-27T21:49:25.777Z,101555.13
2022-12-27T21:51:55.835Z,101547.69
2022-12-27T21:54:25.767Z,101569.91
2022-12-27T21:56:55.223Z,101563.03
2022-12-27T21:59:25.122Z,101566.59
2022-12-27T22:01:56.173Z,101561.31
2022-12-27T22:04:25.407Z,101564.06
2022-12-27T22:06:55.203Z,101561.66
2022-12-27T22:09:24.157Z,101553.91
2022-12-27T22:11:53.538Z,101545.34
2022-12-27T22:14:25.594Z,101539.28
2022-12-27T22:17:00.171Z,101530.75
2022-12-27T22:19:31.887Z,101539.22
2022-12-27T22:22:01.896Z,101532.00
2022-12-27T22:24:33.328Z,101525.03
2022-12-27T22:27:02.968Z,101532.81
2022-12-27T22:29:35.410Z,101523.38
2022-12-27T22:32:07.176Z,101509.94
2022-12-27T22:34:39.340Z,101492.69
2022-12-27T22:37:09.399Z,101481.50
2022-12-27T22:39:39.295Z,101473.66
2022-12-27T22:42:09.647Z,101466.78
2022-12-27T22:44:39.126Z,101460.16
2022-12-27T22:47:26.444Z,101459.75
2022-12-27T22:49:57.608Z,101455.00
2022-12-27T22:52:26.597Z,101448.72
2022-12-27T22:55:04.173Z,101437.69
2022-12-27T22:57:36.065Z,101429.66
2022-12-27T23:00:06.752Z,101425.56
2022-12-27T23:02:38.127Z,101414.47
2022-12-27T23:05:08.145Z,101415.31
2022-12-27T23:08:04.929Z,101414.22
2022-12-27T23:10:26.874Z,101412.25
2022-12-27T23:12:57.949Z,101416.09
2022-12-27T23:15:27.597Z,101405.63
2022-12-27T23:17:59.058Z,101376.75
2022-12-27T23:20:28.594Z,101371.78
2022-12-27T23:22:59.055Z,101396.44
2022-12-27T23:25:29.346Z,101373.22
2022-12-27T23:27:59.343Z,101312.13
2022-12-27T23:30:29.594Z,101385.34
2022-12-27T23:33:00.697Z,101390.47
2022-12-27T23:35:30.366Z,101357.81
2022-12-27T23:38:00.390Z,101347.34
2022-12-27T23:40:31.156Z,101341.75
2022-12-27T23:43:18.771Z,101318.81
2022-12-27T23:45:51.373Z,101308.91
2022-12-27T23:48:22.170Z,101199.00
2022-12-27T23:50:51.730Z,101292.38
2022-12-27T23:53:21.737Z,101286.94
2022-12-27T23:55:58.334Z,101286.34
2022-12-27T23:58:28.471Z,101284.22
